createdAt,value
2018-09-12T00:02:14.687Z,18.30
2018-09-12T00:04:42.900Z,18.30
2018-09-12T00:07:11.135Z,18.20
2018-09-12T00:09:39.284Z,18.20
2018-09-12T00:12:07.463Z,18.20
2018-09-12T00:14:35.676Z,18.20
2018-09-12T00:17:03.934Z,18.20
2018-09-12T00:19:32.118Z,18.20
2018-09-12T00:22:00.231Z,18.20
2018-09-12T00:24:28.439Z,18.20
2018-09-12T00:26:56.539Z,18.10
2018-09-12T00:29:24.695Z,18.00
2018-09-12T00:31:52.863Z,18.00
2018-09-12T00:34:21.039Z,17.80
2018-09-12T00:36:49.183Z,17.80
2018-09-12T00:39:17.411Z,17.70
2018-09-12T00:41:45.565Z,17.50
2018-09-12T00:44:13.717Z,17.30
2018-09-12T00:46:41.856Z,17.30
2018-09-12T00:49:10.007Z,17.40
2018-09-12T00:51:38.213Z,17.50
2018-09-12T00:54:06.643Z,17.60
2018-09-12T00:56:34.812Z,17.60
2018-09-12T00:59:03.032Z,17.60
2018-09-12T01:01:31.171Z,17.60
2018-09-12T01:03:59.324Z,17.50
2018-09-12T01:06:27.455Z,17.40
2018-09-12T01:08:55.610Z,17.40
2018-09-12T01:11:24.315Z,17.30
2018-09-12T01:13:53.727Z,17.20
2018-09-12T01:16:21.891Z,17.20
2018-09-12T01:18:50.064Z,17.10
2018-09-12T01:21:18.196Z,17.10
2018-09-12T01:23:46.420Z,17.10
2018-09-12T01:26:14.551Z,17.20
2018-09-12T01:28:42.632Z,17.20
2018-09-12T01:31:11.136Z,17.20
2018-09-12T01:33:39.285Z,17.20
2018-09-12T01:36:07.533Z,17.20
2018-09-12T01:38:35.702Z,17.20
2018-09-12T01:41:03.855Z,17.10
2018-09-12T01:43:32.194Z,17.10
2018-09-12T01:46:00.413Z,17.10
2018-09-12T01:48:28.574Z,17.20
2018-09-12T01:50:56.801Z,17.20
2018-09-12T01:53:24.958Z,17.30
2018-09-12T01:55:53.156Z,17.30
2018-09-12T01:58:21.321Z,17.30
2018-09-12T02:00:49.452Z,17.20
2018-09-12T02:03:17.652Z,17.10
2018-09-12T02:05:45.850Z,17.20
2018-09-12T02:08:13.977Z,17.20
2018-09-12T02:10:42.169Z,17.10
2018-09-12T02:13:10.356Z,17.00
2018-09-12T02:15:38.462Z,16.90
2018-09-12T02:18:06.618Z,17.00
2018-09-12T02:20:34.805Z,17.00
2018-09-12T02:23:02.961Z,17.00
2018-09-12T02:25:31.089Z,17.00
2018-09-12T02:27:59.221Z,16.90
2018-09-12T02:30:27.323Z,16.90
2018-09-12T02:33:02.267Z,16.90
2018-09-12T02:35:30.433Z,16.80
2018-09-12T02:37:58.657Z,16.80
2018-09-12T02:40:26.764Z,16.80
2018-09-12T02:42:54.894Z,16.90
2018-09-12T02:45:23.005Z,16.80
2018-09-12T02:47:51.129Z,16.80
2018-09-12T02:50:19.228Z,16.90
2018-09-12T02:52:47.393Z,16.90
2018-09-12T02:55:15.490Z,16.90
2018-09-12T02:57:43.715Z,16.80
2018-09-12T03:00:11.891Z,16.80
2018-09-12T03:02:40.051Z,16.90
2018-09-12T03:05:08.267Z,16.90
2018-09-12T03:07:36.348Z,16.90
2018-09-12T03:10:05.352Z,17.00
2018-09-12T03:12:33.492Z,17.10
2018-09-12T03:15:01.627Z,17.10
2018-09-12T03:17:29.748Z,17.10
2018-09-12T03:19:58.610Z,17.00
2018-09-12T03:22:26.724Z,16.90
2018-09-12T03:24:54.898Z,16.80
2018-09-12T03:27:23.055Z,16.80
2018-09-12T03:29:51.204Z,16.90
2018-09-12T03:32:19.303Z,16.80
2018-09-12T03:34:47.446Z,16.90
2018-09-12T03:37:15.560Z,16.80
2018-09-12T03:39:43.701Z,16.70
2018-09-12T03:42:11.854Z,16.70
2018-09-12T03:44:39.981Z,16.70
2018-09-12T03:47:08.113Z,16.80
2018-09-12T03:49:36.219Z,16.80
2018-09-12T03:52:04.346Z,16.80
2018-09-12T03:54:32.760Z,16.80
2018-09-12T03:57:00.859Z,16.80
2018-09-12T03:59:29.081Z,16.90
2018-09-12T04:01:57.256Z,16.90
2018-09-12T04:04:25.440Z,16.90
2018-09-12T04:06:53.569Z,16.90
2018-09-12T04:09:21.860Z,16.80
2018-09-12T04:11:49.980Z,16.90
2018-09-12T04:14:18.114Z,16.90
2018-09-12T04:16:46.337Z,16.90
2018-09-12T04:19:14.412Z,16.80
2018-09-12T04:21:42.488Z,16.80
2018-09-12T04:24:10.682Z,16.80
2018-09-12T04:26:38.795Z,16.70
2018-09-12T04:29:06.948Z,16.80
2018-09-12T04:31:35.130Z,16.80
2018-09-12T04:34:03.241Z,16.80
2018-09-12T04:36:31.404Z,16.80
2018-09-12T04:38:59.697Z,16.70
2018-09-12T04:41:27.840Z,16.70
2018-09-12T04:43:56.059Z,16.60
2018-09-12T04:46:24.168Z,16.60
2018-09-12T04:48:52.296Z,16.60
2018-09-12T04:51:20.492Z,16.60
2018-09-12T04:53:48.653Z,16.70
2018-09-12T04:56:16.813Z,16.80
2018-09-12T04:58:45.031Z,16.80
2018-09-12T05:01:13.179Z,16.80
2018-09-12T05:03:41.348Z,16.90
2018-09-12T05:06:09.483Z,16.70
2018-09-12T05:08:37.640Z,16.70
2018-09-12T05:11:05.832Z,16.70
2018-09-12T05:13:33.996Z,16.60
2018-09-12T05:16:02.285Z,16.40
2018-09-12T05:18:30.316Z,16.40
2018-09-12T05:20:58.688Z,16.40
2018-09-12T05:23:26.884Z,16.40
2018-09-12T05:25:55.047Z,16.40
2018-09-12T05:28:23.222Z,16.50
2018-09-12T05:30:51.507Z,16.40
2018-09-12T05:33:19.871Z,16.40
2018-09-12T05:35:48.032Z,16.50
2018-09-12T05:38:16.306Z,16.50
2018-09-12T05:40:44.467Z,16.60
2018-09-12T05:43:12.651Z,16.60
2018-09-12T05:45:40.788Z,16.60
2018-09-12T05:48:08.933Z,16.70
2018-09-12T05:50:37.109Z,16.70
2018-09-12T05:53:05.248Z,16.80
2018-09-12T05:55:33.527Z,16.90
2018-09-12T05:58:01.689Z,16.90
2018-09-12T06:00:29.911Z,17.00
2018-09-12T06:02:58.115Z,17.00
2018-09-12T06:05:26.240Z,17.00
2018-09-12T06:07:54.545Z,17.00
2018-09-12T06:10:22.854Z,17.00
2018-09-12T06:12:51.050Z,17.00
2018-09-12T06:15:20.224Z,17.10
2018-09-12T06:17:48.403Z,17.00
2018-09-12T06:20:16.521Z,17.00
2018-09-12T06:22:44.747Z,17.10
2018-09-12T06:25:12.860Z,17.20
2018-09-12T06:27:40.926Z,17.20
2018-09-12T06:30:09.156Z,17.30
2018-09-12T06:32:37.251Z,17.40
2018-09-12T06:35:05.594Z,17.40
2018-09-12T06:37:33.804Z,17.40
2018-09-12T06:40:01.942Z,17.50
2018-09-12T06:42:30.095Z,17.50
2018-09-12T06:44:58.319Z,17.50
2018-09-12T06:47:26.526Z,17.60
2018-09-12T06:49:54.745Z,17.60
2018-09-12T06:52:22.978Z,17.70
2018-09-12T06:54:51.239Z,17.80
2018-09-12T06:57:19.479Z,17.80
2018-09-12T06:59:47.606Z,17.90
2018-09-12T07:02:15.739Z,18.00
2018-09-12T07:04:43.939Z,18.00
2018-09-12T07:07:12.111Z,18.10
2018-09-12T07:09:47.008Z,18.20
2018-09-12T07:12:15.286Z,18.20
2018-09-12T07:14:43.411Z,18.30
2018-09-12T07:17:11.584Z,18.40
2018-09-12T07:19:39.710Z,18.60
2018-09-12T07:22:07.901Z,18.60
2018-09-12T07:24:36.095Z,18.70
2018-09-12T07:27:04.965Z,18.70
2018-09-12T07:29:33.122Z,18.80
2018-09-12T07:32:02.249Z,18.90
2018-09-12T07:34:30.425Z,19.00
2018-09-12T07:36:59.543Z,19.10
2018-09-12T07:39:27.695Z,19.20
2018-09-12T07:41:55.936Z,19.20
2018-09-12T07:44:24.092Z,19.30
2018-09-12T07:46:52.357Z,19.40
2018-09-12T07:49:20.558Z,19.50
2018-09-12T07:51:48.792Z,19.50
2018-09-12T07:54:16.935Z,19.50
2018-09-12T07:56:45.145Z,19.60
2018-09-12T07:59:13.383Z,19.60
2018-09-12T08:01:41.515Z,19.70
2018-09-12T08:04:09.715Z,19.80
2018-09-12T08:06:37.841Z,19.90
2018-09-12T08:09:09.361Z,20.00
2018-09-12T08:11:37.481Z,20.20
2018-09-12T08:14:05.679Z,20.30
2018-09-12T08:16:33.846Z,20.40
2018-09-12T08:19:02.059Z,20.50
2018-09-12T08:21:30.232Z,20.60
2018-09-12T08:23:58.358Z,20.80
2018-09-12T08:26:26.504Z,20.90
2018-09-12T08:28:55.516Z,21.00
2018-09-12T08:31:23.624Z,21.10
2018-09-12T08:33:51.748Z,21.30
2018-09-12T08:36:19.915Z,21.40
2018-09-12T08:38:48.370Z,21.50
2018-09-12T08:41:16.520Z,21.60
2018-09-12T08:43:44.663Z,21.70
2018-09-12T08:46:12.766Z,21.90
2018-09-12T08:48:40.959Z,21.90
2018-09-12T08:51:09.095Z,22.00
2018-09-12T08:53:37.335Z,22.10
2018-09-12T08:56:05.553Z,22.10
2018-09-12T08:58:33.674Z,22.30
2018-09-12T09:01:01.780Z,22.30
2018-09-12T09:03:29.898Z,22.40
2018-09-12T09:05:58.185Z,22.60
2018-09-12T09:08:26.408Z,22.70
2018-09-12T09:10:54.581Z,22.80
2018-09-12T09:13:22.736Z,22.90
2018-09-12T09:15:50.862Z,23.00
2018-09-12T09:18:18.999Z,23.20
2018-09-12T09:20:47.159Z,23.30
2018-09-12T09:23:15.269Z,23.40
2018-09-12T09:25:43.496Z,23.50
2018-09-12T09:28:11.669Z,23.70
2018-09-12T09:30:39.931Z,23.70
2018-09-12T09:33:08.122Z,23.90
2018-09-12T09:35:36.357Z,24.00
2018-09-12T09:38:04.479Z,24.10
2018-09-12T09:40:32.593Z,24.30
2018-09-12T09:43:00.772Z,24.40
2018-09-12T09:45:29.023Z,24.50
2018-09-12T09:47:57.192Z,24.60
2018-09-12T09:50:25.291Z,24.70
2018-09-12T09:52:53.452Z,24.80
2018-09-12T09:55:21.609Z,24.90
2018-09-12T09:57:49.816Z,24.90
2018-09-12T10:00:23.534Z,25.00
2018-09-12T10:02:57.497Z,25.10
2018-09-12T10:05:31.253Z,25.20
2018-09-12T10:08:05.036Z,25.20
2018-09-12T10:10:33.156Z,25.40
2018-09-12T10:13:01.534Z,25.40
2018-09-12T10:15:29.683Z,25.50
2018-09-12T10:17:57.843Z,25.60
2018-09-12T10:20:26.140Z,25.70
2018-09-12T10:22:54.267Z,25.70
2018-09-12T10:25:22.561Z,26.20
2018-09-12T10:27:50.807Z,26.30
2018-09-12T10:30:19.041Z,26.40
2018-09-12T10:32:47.197Z,26.40
2018-09-12T10:35:15.371Z,26.40
2018-09-12T10:37:43.492Z,26.40
2018-09-12T10:40:11.628Z,26.40
2018-09-12T10:42:39.785Z,26.60
2018-09-12T10:45:08.111Z,26.60
2018-09-12T10:47:36.335Z,26.60
2018-09-12T10:50:04.674Z,26.60
2018-09-12T10:52:32.917Z,26.60
2018-09-12T10:55:01.016Z,26.60
2018-09-12T10:57:29.177Z,26.70
2018-09-12T10:59:57.351Z,26.80
2018-09-12T11:02:25.580Z,27.10
2018-09-12T11:04:53.820Z,27.10
2018-09-12T11:07:22.046Z,27.10
2018-09-12T11:09:50.245Z,27.10
2018-09-12T11:12:18.406Z,27.20
2018-09-12T11:14:46.511Z,27.20
2018-09-12T11:17:14.674Z,27.20
2018-09-12T11:19:42.915Z,27.30
2018-09-12T11:22:11.072Z,27.50
2018-09-12T11:24:39.199Z,27.60
2018-09-12T11:27:07.432Z,27.70
2018-09-12T11:29:35.661Z,27.70
2018-09-12T11:32:03.877Z,27.70
2018-09-12T11:34:32.101Z,27.60
2018-09-12T11:37:00.287Z,27.70
2018-09-12T11:39:28.468Z,27.70
2018-09-12T11:41:56.632Z,27.70
2018-09-12T11:44:24.778Z,27.70
2018-09-12T11:46:52.919Z,27.80
2018-09-12T11:49:21.061Z,27.70
2018-09-12T11:51:49.188Z,27.70
2018-09-12T11:54:17.400Z,27.70
2018-09-12T11:56:45.513Z,27.80
2018-09-12T11:59:13.637Z,27.70
2018-09-12T12:01:41.824Z,27.60
2018-09-12T12:04:10.024Z,27.50
2018-09-12T12:06:38.211Z,27.60
2018-09-12T12:09:08.905Z,27.50
2018-09-12T12:11:37.055Z,27.80
2018-09-12T12:14:05.269Z,27.80
2018-09-12T12:16:33.592Z,27.90
2018-09-12T12:19:01.774Z,27.90
2018-09-12T12:21:30.609Z,28.10
2018-09-12T12:23:58.963Z,28.10
2018-09-12T12:26:27.139Z,28.10
2018-09-12T12:28:55.472Z,28.10
2018-09-12T12:31:23.736Z,28.20
2018-09-12T12:33:51.975Z,28.20
2018-09-12T12:36:20.195Z,28.30
2018-09-12T12:38:48.367Z,28.50
2018-09-12T12:41:16.743Z,28.50
2018-09-12T12:43:44.959Z,28.50
2018-09-12T12:46:13.179Z,28.50
2018-09-12T12:48:41.429Z,28.50
2018-09-12T12:51:09.594Z,28.50
2018-09-12T12:53:37.791Z,28.60
2018-09-12T12:56:06.111Z,28.60
2018-09-12T12:58:34.514Z,28.70
2018-09-12T13:01:02.833Z,28.70
2018-09-12T13:03:31.093Z,28.60
2018-09-12T13:05:59.343Z,28.60
2018-09-12T13:08:27.571Z,28.50
2018-09-12T13:10:55.748Z,28.60
2018-09-12T13:13:23.997Z,28.90
2018-09-12T13:15:52.102Z,28.90
2018-09-12T13:18:20.235Z,29.00
2018-09-12T13:20:48.355Z,28.90
2018-09-12T13:23:16.600Z,28.90
2018-09-12T13:25:44.799Z,28.90
2018-09-12T13:28:13.678Z,28.90
2018-09-12T13:30:41.855Z,28.90
2018-09-12T13:33:10.123Z,28.90
2018-09-12T13:35:38.242Z,28.90
2018-09-12T13:38:06.498Z,28.90
2018-09-12T13:40:34.740Z,28.90
2018-09-12T13:43:02.836Z,29.00
2018-09-12T13:45:30.974Z,29.10
2018-09-12T13:47:59.064Z,29.10
2018-09-12T13:50:27.303Z,29.20
2018-09-12T13:52:55.505Z,29.30
2018-09-12T13:55:23.639Z,29.20
2018-09-12T13:57:51.817Z,29.20
2018-09-12T14:00:20.080Z,29.20
2018-09-12T14:02:48.288Z,29.20
2018-09-12T14:05:16.610Z,29.20
2018-09-12T14:07:44.825Z,29.20
2018-09-12T14:10:12.983Z,29.20
2018-09-12T14:12:41.208Z,29.20
2018-09-12T14:15:09.435Z,29.20
2018-09-12T14:17:37.638Z,29.00
2018-09-12T14:20:05.966Z,29.10
2018-09-12T14:22:34.644Z,29.30
2018-09-12T14:25:02.843Z,29.40
2018-09-12T14:27:30.963Z,29.30
2018-09-12T14:29:59.136Z,29.30
2018-09-12T14:32:27.284Z,29.30
2018-09-12T14:34:55.456Z,29.30
2018-09-12T14:37:23.815Z,29.30
2018-09-12T14:39:52.045Z,29.20
2018-09-12T14:42:20.319Z,29.20
2018-09-12T14:44:48.498Z,29.00
2018-09-12T14:47:16.725Z,29.00
2018-09-12T14:49:44.892Z,29.00
2018-09-12T14:52:13.079Z,29.00
2018-09-12T14:54:41.206Z,29.00
2018-09-12T14:57:09.407Z,29.10
2018-09-12T14:59:37.667Z,29.20
2018-09-12T15:02:06.798Z,29.30
2018-09-12T15:04:35.003Z,29.40
2018-09-12T15:07:03.304Z,29.60
2018-09-12T15:09:31.468Z,30.30
2018-09-12T15:11:59.667Z,31.10
2018-09-12T15:14:27.896Z,31.50
2018-09-12T15:16:56.092Z,31.60
2018-09-12T15:19:25.287Z,31.30
2018-09-12T15:21:53.508Z,30.50
2018-09-12T15:24:21.639Z,30.60
2018-09-12T15:26:49.923Z,30.50
2018-09-12T15:29:18.167Z,30.40
2018-09-12T15:31:46.336Z,30.30
2018-09-12T15:34:14.527Z,30.30
2018-09-12T15:36:42.781Z,30.30
2018-09-12T15:39:11.544Z,30.30
2018-09-12T15:41:39.991Z,30.10
2018-09-12T15:44:08.289Z,30.00
2018-09-12T15:46:36.472Z,29.90
2018-09-12T15:49:05.650Z,29.80
2018-09-12T15:51:33.859Z,29.70
2018-09-12T15:54:02.112Z,29.60
2018-09-12T15:56:30.329Z,29.50
2018-09-12T15:58:58.546Z,29.40
2018-09-12T16:01:26.734Z,29.30
2018-09-12T16:03:54.977Z,29.20
2018-09-12T16:06:23.212Z,29.20
2018-09-12T16:08:51.347Z,29.10
2018-09-12T16:11:19.531Z,29.10
2018-09-12T16:13:47.665Z,29.10
2018-09-12T16:16:15.910Z,29.10
2018-09-12T16:18:44.037Z,29.10
2018-09-12T16:21:12.252Z,29.00
2018-09-12T16:23:40.476Z,29.00
2018-09-12T16:26:08.656Z,28.80
2018-09-12T16:28:36.833Z,28.80
2018-09-12T16:31:05.140Z,28.60
2018-09-12T16:33:34.294Z,28.60
2018-09-12T16:36:02.576Z,28.60
2018-09-12T16:38:30.831Z,28.50
2018-09-12T16:40:59.027Z,28.50
2018-09-12T16:43:27.403Z,28.50
2018-09-12T16:45:55.751Z,28.50
2018-09-12T16:48:23.915Z,28.40
2018-09-12T16:50:52.205Z,28.30
2018-09-12T16:53:20.536Z,28.20
2018-09-12T16:55:48.801Z,28.20
2018-09-12T16:58:17.044Z,28.10
2018-09-12T17:00:45.231Z,28.10
2018-09-12T17:03:13.476Z,28.10
2018-09-12T17:05:42.156Z,28.10
2018-09-12T17:08:10.486Z,28.00
2018-09-12T17:10:38.723Z,28.00
2018-09-12T17:13:07.061Z,27.80
2018-09-12T17:15:35.285Z,27.80
2018-09-12T17:18:03.486Z,27.70
2018-09-12T17:20:31.646Z,27.60
2018-09-12T17:22:59.917Z,27.50
2018-09-12T17:25:28.128Z,27.40
2018-09-12T17:27:57.155Z,27.40
2018-09-12T17:30:25.434Z,27.40
2018-09-12T17:32:53.638Z,27.30
2018-09-12T17:35:21.981Z,27.10
2018-09-12T17:37:50.276Z,27.00
2018-09-12T17:40:18.515Z,27.00
2018-09-12T17:42:46.953Z,26.80
2018-09-12T17:45:15.177Z,26.70
2018-09-12T17:47:43.609Z,26.70
2018-09-12T17:50:11.849Z,26.60
2018-09-12T17:52:40.012Z,26.60
2018-09-12T17:55:08.302Z,26.50
2018-09-12T17:57:36.471Z,26.40
2018-09-12T18:00:05.064Z,26.30
2018-09-12T18:02:33.269Z,26.30
2018-09-12T18:05:01.491Z,26.20
2018-09-12T18:07:29.775Z,26.10
2018-09-12T18:09:58.122Z,26.00
2018-09-12T18:12:26.363Z,25.80
2018-09-12T18:14:55.362Z,25.60
2018-09-12T18:17:23.576Z,25.60
2018-09-12T18:19:51.779Z,25.60
2018-09-12T18:22:19.997Z,25.40
2018-09-12T18:24:50.309Z,25.30
2018-09-12T18:27:18.495Z,25.30
2018-09-12T18:29:46.786Z,25.20
2018-09-12T18:32:15.116Z,25.20
2018-09-12T18:34:43.340Z,25.10
2018-09-12T18:37:11.614Z,25.00
2018-09-12T18:39:39.820Z,24.90
2018-09-12T18:42:08.128Z,24.80
2018-09-12T18:44:36.415Z,24.80
2018-09-12T18:47:04.807Z,24.70
2018-09-12T18:49:33.055Z,24.60
2018-09-12T18:52:01.339Z,24.40
2018-09-12T18:54:29.673Z,24.40
2018-09-12T18:56:57.946Z,24.50
2018-09-12T18:59:26.319Z,24.50
2018-09-12T19:01:54.639Z,24.30
2018-09-12T19:04:22.933Z,24.10
2018-09-12T19:06:51.847Z,24.00
2018-09-12T19:09:20.016Z,23.80
2018-09-12T19:11:48.316Z,23.70
2018-09-12T19:14:16.601Z,23.70
2018-09-12T19:16:44.835Z,23.70
2018-09-12T19:19:13.087Z,23.60
2018-09-12T19:21:41.354Z,23.70
2018-09-12T19:24:10.050Z,23.60
2018-09-12T19:26:38.402Z,23.60
2018-09-12T19:29:06.689Z,23.70
2018-09-12T19:31:34.965Z,23.70
2018-09-12T19:34:03.354Z,23.70
2018-09-12T19:36:31.681Z,23.60
2018-09-12T19:39:00.111Z,23.50
2018-09-12T19:41:28.397Z,23.50
2018-09-12T19:43:56.692Z,23.40
2018-09-12T19:46:25.000Z,23.30
2018-09-12T19:48:53.870Z,23.30
2018-09-12T19:51:22.236Z,23.30
2018-09-12T19:53:50.602Z,23.30
2018-09-12T19:56:18.905Z,23.20
2018-09-12T19:58:47.343Z,23.10
2018-09-12T20:01:15.697Z,23.10
2018-09-12T20:03:44.064Z,23.10
2018-09-12T20:06:12.447Z,23.10
2018-09-12T20:08:40.779Z,23.00
2018-09-12T20:11:09.153Z,22.80
2018-09-12T20:13:37.374Z,22.80
2018-09-12T20:16:05.939Z,22.80
2018-09-12T20:18:34.299Z,22.80
2018-09-12T20:21:02.726Z,22.90
2018-09-12T20:23:31.315Z,23.00
2018-09-12T20:25:59.719Z,23.20
2018-09-12T20:28:28.081Z,23.30
2018-09-12T20:30:56.358Z,23.30
2018-09-12T20:33:24.634Z,23.40
2018-09-12T20:35:52.899Z,23.40
2018-09-12T20:38:21.249Z,23.40
2018-09-12T20:40:49.539Z,23.40
2018-09-12T20:43:17.778Z,23.20
2018-09-12T20:45:46.042Z,23.20
2018-09-12T20:48:14.320Z,23.00
2018-09-12T20:50:42.742Z,22.70
2018-09-12T20:53:11.112Z,22.30
2018-09-12T20:55:39.410Z,21.80
2018-09-12T20:58:07.759Z,21.50
2018-09-12T21:00:36.305Z,21.20
2018-09-12T21:03:07.535Z,21.10
2018-09-12T21:05:35.814Z,21.00
2018-09-12T21:08:04.150Z,21.00
2018-09-12T21:10:32.428Z,20.90
2018-09-12T21:13:00.828Z,20.90
2018-09-12T21:15:30.233Z,20.90
2018-09-12T21:17:58.497Z,21.00
2018-09-12T21:20:26.740Z,20.90
2018-09-12T21:22:54.961Z,21.00
2018-09-12T21:25:23.200Z,20.80
2018-09-12T21:27:51.367Z,20.50
2018-09-12T21:30:19.523Z,20.50
2018-09-12T21:32:47.721Z,20.60
2018-09-12T21:35:15.877Z,20.80
2018-09-12T21:37:44.474Z,20.50
2018-09-12T21:40:12.685Z,20.50
2018-09-12T21:42:40.792Z,20.50
2018-09-12T21:45:09.085Z,20.60
2018-09-12T21:47:37.343Z,20.70
2018-09-12T21:50:05.705Z,20.80
2018-09-12T21:52:34.785Z,20.80
2018-09-12T21:55:03.953Z,20.70
2018-09-12T21:57:32.095Z,20.70
2018-09-12T22:00:00.921Z,20.80
2018-09-12T22:02:29.082Z,20.70
2018-09-12T22:04:57.291Z,20.50
2018-09-12T22:07:25.551Z,20.60
2018-09-12T22:09:54.277Z,20.70
2018-09-12T22:12:22.549Z,20.70
2018-09-12T22:14:50.848Z,20.50
2018-09-12T22:17:19.144Z,20.50
2018-09-12T22:19:47.569Z,20.50
2018-09-12T22:22:15.832Z,20.50
2018-09-12T22:24:44.075Z,20.60
2018-09-12T22:27:12.412Z,20.60
2018-09-12T22:29:41.061Z,20.50
2018-09-12T22:32:10.101Z,20.50
2018-09-12T22:34:38.400Z,20.50
2018-09-12T22:37:06.821Z,20.60
2018-09-12T22:39:36.051Z,20.70
2018-09-12T22:42:04.489Z,20.70
2018-09-12T22:44:32.802Z,20.70
2018-09-12T22:47:02.051Z,20.60
2018-09-12T22:49:30.584Z,20.50
2018-09-12T22:51:58.847Z,20.50
2018-09-12T22:54:27.036Z,20.60
2018-09-12T22:56:55.242Z,20.50
2018-09-12T22:59:23.362Z,20.60
2018-09-12T23:01:51.507Z,20.60
2018-09-12T23:04:19.667Z,20.60
2018-09-12T23:06:48.507Z,20.60
2018-09-12T23:09:16.859Z,20.50
2018-09-12T23:11:44.975Z,20.40
2018-09-12T23:14:13.213Z,20.30
2018-09-12T23:16:41.357Z,20.40
2018-09-12T23:19:09.485Z,20.40
2018-09-12T23:21:37.599Z,20.50
2018-09-12T23:24:07.492Z,20.50
2018-09-12T23:26:36.392Z,20.50
2018-09-12T23:29:04.592Z,20.40
2018-09-12T23:31:32.731Z,20.30
2018-09-12T23:34:00.880Z,20.20
2018-09-12T23:36:28.994Z,20.10
2018-09-12T23:38:57.145Z,20.00
2018-09-12T23:41:25.298Z,19.90
2018-09-12T23:43:53.590Z,19.70
2018-09-12T23:46:21.817Z,19.70
2018-09-12T23:48:49.972Z,19.70
2018-09-12T23:51:18.330Z,19.80
2018-09-12T23:53:47.507Z,19.80
2018-09-12T23:56:16.715Z,19.80
2018-09-12T23:58:51.551Z,19.80
